LNI113 OEMA-WIII
Flight info
| Callsign | LNI113 |
|---|---|
| Flight time | N/A |
| Altitude | 41000 |
| Route | MEDRO1K MEDRO M872 BDB Y214 RAPMA DEGNO GOBRO L425 ASPUX UL425 TVM N640 KAT M766 PAGAI G461 BIDAK BIDAK1A |
| Aircraft | A333/H-SDE3GHIJ2J3J5M1RVWXY/LB2D1 |
Departure
| Time | N/A |
|---|---|
| Airport | Prince Mohammad Bin Abdulaziz Airport (OEMA) |
Arrival
| Time | 2026-04-28 06:13 |
|---|---|
| Airport | Soekarno-Hatta International Airport (WIII) |
| Time | Latitude | Longitude | Altitude | Speed | Heading |
|---|---|---|---|---|---|
| 2026-04-28 03:54 | 1.38147 | 91.60153 | 40873 ft | 477 kts | 114° |
| 2026-04-28 03:55 | 1.35196 | 91.66090 | 40873 ft | 477 kts | 114° |
| 2026-04-28 03:55 | 1.32245 | 91.72027 | 40873 ft | 477 kts | 114° |
| 2026-04-28 03:56 | 1.29313 | 91.77926 | 40873 ft | 477 kts | 114° |
| 2026-04-28 03:56 | 1.26361 | 91.83864 | 40873 ft | 476 kts | 114° |
| 2026-04-28 03:57 | 1.23410 | 91.89801 | 40873 ft | 476 kts | 114° |
| 2026-04-28 03:57 | 1.20475 | 91.95704 | 40873 ft | 477 kts | 114° |
| 2026-04-28 03:58 | 1.17532 | 92.01640 | 40873 ft | 477 kts | 114° |
| 2026-04-28 03:58 | 1.14628 | 92.07588 | 40873 ft | 476 kts | 114° |
| 2026-04-28 03:59 | 1.11725 | 92.13541 | 40873 ft | 475 kts | 114° |
| 2026-04-28 03:59 | 1.08853 | 92.19431 | 40873 ft | 475 kts | 114° |
| 2026-04-28 04:00 | 1.05958 | 92.25370 | 40873 ft | 475 kts | 114° |
| 2026-04-28 04:00 | 1.03057 | 92.31321 | 40873 ft | 476 kts | 114° |
| 2026-04-28 04:01 | 1.00158 | 92.37271 | 40873 ft | 476 kts | 114° |
| 2026-04-28 04:01 | 0.97255 | 92.43226 | 40873 ft | 476 kts | 114° |
| 2026-04-28 04:02 | 0.94358 | 92.49169 | 40873 ft | 476 kts | 114° |
| 2026-04-28 04:02 | 0.91479 | 92.55075 | 40873 ft | 476 kts | 114° |
| 2026-04-28 04:03 | 0.88579 | 92.61024 | 40873 ft | 475 kts | 114° |
| 2026-04-28 04:03 | 0.85677 | 92.66978 | 40873 ft | 475 kts | 114° |
| 2026-04-28 04:04 | 0.82797 | 92.72885 | 40873 ft | 475 kts | 114° |
| 2026-04-28 04:04 | 0.79898 | 92.78832 | 40877 ft | 475 kts | 114° |
| 2026-04-28 04:05 | 0.77002 | 92.84771 | 40877 ft | 475 kts | 114° |
| 2026-04-28 04:05 | 0.74103 | 92.90718 | 40877 ft | 475 kts | 114° |
| 2026-04-28 04:06 | 0.71218 | 92.96633 | 40877 ft | 475 kts | 114° |
| 2026-04-28 04:06 | 0.68323 | 93.02573 | 40877 ft | 475 kts | 114° |
| 2026-04-28 04:07 | 0.65419 | 93.08527 | 40877 ft | 476 kts | 114° |
| 2026-04-28 04:07 | 0.62539 | 93.14434 | 40877 ft | 476 kts | 114° |
| 2026-04-28 04:08 | 0.59636 | 93.20387 | 40877 ft | 476 kts | 114° |
| 2026-04-28 04:08 | 0.56738 | 93.26327 | 40877 ft | 475 kts | 114° |
| 2026-04-28 04:09 | 0.53842 | 93.32268 | 40878 ft | 475 kts | 114° |
| 2026-04-28 04:09 | 0.50960 | 93.38177 | 40878 ft | 476 kts | 115° |
| 2026-04-28 04:10 | 0.48527 | 93.43166 | 40878 ft | 476 kts | 115° |
| 2026-04-28 04:10 | 0.45151 | 93.50086 | 40878 ft | 476 kts | 115° |
| 2026-04-28 04:11 | 0.42735 | 93.55039 | 40878 ft | 476 kts | 115° |
| 2026-04-28 04:11 | 0.39834 | 93.60986 | 40878 ft | 475 kts | 115° |
| 2026-04-28 04:12 | 0.36955 | 93.66889 | 40878 ft | 475 kts | 115° |
| 2026-04-28 04:12 | 0.34051 | 93.72825 | 40878 ft | 475 kts | 115° |
| 2026-04-28 04:13 | 0.31145 | 93.78765 | 40878 ft | 476 kts | 115° |
| 2026-04-28 04:13 | 0.28234 | 93.84719 | 40878 ft | 476 kts | 115° |
| 2026-04-28 04:14 | 0.25348 | 93.90622 | 40878 ft | 475 kts | 115° |
| 2026-04-28 04:14 | 0.22449 | 93.96550 | 40965 ft | 474 kts | 115° |
| 2026-04-28 04:15 | 0.19552 | 94.02475 | 41008 ft | 475 kts | 115° |
| 2026-04-28 04:16 | 0.15189 | 94.11401 | 41010 ft | 476 kts | 115° |
| 2026-04-28 04:16 | 0.12298 | 94.17314 | 41010 ft | 475 kts | 115° |
| 2026-04-28 04:17 | 0.09400 | 94.23242 | 41011 ft | 474 kts | 115° |
| 2026-04-28 04:17 | 0.06502 | 94.29171 | 41011 ft | 474 kts | 115° |
| 2026-04-28 04:18 | 0.03599 | 94.35111 | 41011 ft | 475 kts | 115° |
| 2026-04-28 04:18 | 0.00711 | 94.41019 | 41011 ft | 475 kts | 115° |
| 2026-04-28 04:19 | -0.02193 | 94.46959 | 41011 ft | 476 kts | 115° |
| 2026-04-28 04:19 | -0.05102 | 94.52909 | 41011 ft | 476 kts | 115° |
| 2026-04-28 04:20 | -0.08004 | 94.58846 | 41011 ft | 475 kts | 115° |
| 2026-04-28 04:20 | -0.10900 | 94.64771 | 41011 ft | 474 kts | 115° |
| 2026-04-28 04:21 | -0.13782 | 94.70666 | 41011 ft | 475 kts | 115° |
| 2026-04-28 04:21 | -0.16680 | 94.76598 | 41011 ft | 476 kts | 115° |
| 2026-04-28 04:22 | -0.19590 | 94.82550 | 41011 ft | 476 kts | 115° |
| 2026-04-28 04:22 | -0.22499 | 94.88501 | 41010 ft | 476 kts | 115° |
| 2026-04-28 04:23 | -0.25387 | 94.94408 | 41010 ft | 475 kts | 115° |
| 2026-04-28 04:23 | -0.28290 | 95.00346 | 41010 ft | 475 kts | 115° |
| 2026-04-28 04:24 | -0.31180 | 95.06260 | 41010 ft | 475 kts | 115° |
| 2026-04-28 04:24 | -0.34101 | 95.12228 | 41010 ft | 475 kts | 115° |
| 2026-04-28 04:25 | -0.37006 | 95.18180 | 41009 ft | 476 kts | 115° |
| 2026-04-28 04:25 | -0.39913 | 95.24132 | 41009 ft | 476 kts | 115° |
| 2026-04-28 04:26 | -0.42800 | 95.30041 | 41009 ft | 476 kts | 115° |
| 2026-04-28 04:26 | -0.45717 | 95.36010 | 41008 ft | 476 kts | 115° |
| 2026-04-28 04:27 | -0.48622 | 95.41955 | 41008 ft | 476 kts | 115° |
| 2026-04-28 04:27 | -0.51527 | 95.47900 | 40986 ft | 476 kts | 115° |
| 2026-04-28 04:28 | -0.54418 | 95.53816 | 40983 ft | 476 kts | 115° |
| 2026-04-28 04:28 | -0.57329 | 95.59771 | 40983 ft | 476 kts | 115° |
| 2026-04-28 04:29 | -0.60237 | 95.65723 | 40983 ft | 476 kts | 115° |
| 2026-04-28 04:29 | -0.63143 | 95.71670 | 40983 ft | 476 kts | 115° |
| 2026-04-28 04:30 | -0.66033 | 95.77583 | 40983 ft | 476 kts | 115° |
| 2026-04-28 04:30 | -0.68939 | 95.83530 | 40982 ft | 476 kts | 115° |
| 2026-04-28 04:31 | -0.71844 | 95.89475 | 40982 ft | 476 kts | 115° |
| 2026-04-28 04:31 | -0.74748 | 95.95418 | 40982 ft | 476 kts | 115° |
| 2026-04-28 04:32 | -0.77634 | 96.01326 | 40982 ft | 476 kts | 115° |
| 2026-04-28 04:32 | -0.80535 | 96.07264 | 40964 ft | 476 kts | 115° |
| 2026-04-28 04:33 | -0.83444 | 96.13219 | 40883 ft | 476 kts | 115° |
| 2026-04-28 04:33 | -0.86345 | 96.19156 | 40875 ft | 475 kts | 115° |
| 2026-04-28 04:34 | -0.89249 | 96.25101 | 40875 ft | 475 kts | 115° |
| 2026-04-28 04:34 | -0.92134 | 96.31006 | 40875 ft | 476 kts | 115° |
| 2026-04-28 04:35 | -0.95040 | 96.36956 | 40875 ft | 476 kts | 115° |
| 2026-04-28 04:35 | -0.97948 | 96.42909 | 40874 ft | 476 kts | 115° |
| 2026-04-28 04:36 | -1.00851 | 96.48853 | 40874 ft | 476 kts | 115° |
| 2026-04-28 04:36 | -1.03756 | 96.54801 | 40875 ft | 476 kts | 115° |
| 2026-04-28 04:37 | -1.06641 | 96.60707 | 40875 ft | 476 kts | 115° |
| 2026-04-28 04:37 | -1.09551 | 96.66666 | 40875 ft | 476 kts | 115° |
| 2026-04-28 04:38 | -1.12455 | 96.72615 | 40875 ft | 476 kts | 115° |
| 2026-04-28 04:38 | -1.15361 | 96.78565 | 40875 ft | 477 kts | 115° |
| 2026-04-28 04:39 | -1.18254 | 96.84491 | 40876 ft | 477 kts | 115° |
| 2026-04-28 04:39 | -1.21166 | 96.90455 | 40878 ft | 476 kts | 115° |
| 2026-04-28 04:40 | -1.24064 | 96.96390 | 40878 ft | 475 kts | 115° |
| 2026-04-28 04:40 | -1.26941 | 97.02285 | 40879 ft | 475 kts | 115° |
| 2026-04-28 04:41 | -1.29845 | 97.08234 | 40878 ft | 476 kts | 116° |
| 2026-04-28 04:41 | -1.32754 | 97.14194 | 40878 ft | 477 kts | 116° |
| 2026-04-28 04:42 | -1.35662 | 97.20152 | 40878 ft | 477 kts | 116° |
| 2026-04-28 04:42 | -1.38564 | 97.26099 | 40878 ft | 476 kts | 116° |
| 2026-04-28 04:43 | -1.41448 | 97.32010 | 40878 ft | 476 kts | 116° |
| 2026-04-28 04:43 | -1.44351 | 97.37959 | 40878 ft | 476 kts | 116° |
| 2026-04-28 04:44 | -1.47254 | 97.43908 | 40877 ft | 475 kts | 116° |
| 2026-04-28 04:44 | -1.50152 | 97.49848 | 40878 ft | 475 kts | 116° |
| 2026-04-28 04:45 | -1.53029 | 97.55747 | 40878 ft | 475 kts | 116° |
| 2026-04-28 04:45 | -1.55925 | 97.61684 | 40877 ft | 475 kts | 116° |
| 2026-04-28 04:46 | -1.58825 | 97.67629 | 40878 ft | 476 kts | 116° |
| 2026-04-28 04:46 | -1.61688 | 97.73630 | 40877 ft | 476 kts | 115° |
| 2026-04-28 04:47 | -1.64499 | 97.79573 | 40877 ft | 476 kts | 115° |
| 2026-04-28 04:47 | -1.67328 | 97.85549 | 40877 ft | 474 kts | 115° |
| 2026-04-28 04:48 | -1.70155 | 97.91518 | 40877 ft | 474 kts | 115° |
| 2026-04-28 04:48 | -1.72980 | 97.97483 | 40877 ft | 475 kts | 115° |
| 2026-04-28 04:49 | -1.75791 | 98.03416 | 40877 ft | 475 kts | 115° |
| 2026-04-28 04:49 | -1.78625 | 98.09400 | 40877 ft | 475 kts | 115° |
| 2026-04-28 04:50 | -1.81451 | 98.15367 | 40877 ft | 475 kts | 115° |
| 2026-04-28 04:50 | -1.84264 | 98.21306 | 40877 ft | 475 kts | 115° |
| 2026-04-28 04:51 | -1.87094 | 98.27281 | 40877 ft | 475 kts | 115° |
| 2026-04-28 04:51 | -1.89923 | 98.33255 | 40876 ft | 475 kts | 115° |
| 2026-04-28 04:52 | -1.92739 | 98.39202 | 40877 ft | 476 kts | 115° |
| 2026-04-28 04:52 | -1.95576 | 98.45196 | 40877 ft | 476 kts | 115° |
| 2026-04-28 04:53 | -1.98395 | 98.51151 | 40876 ft | 476 kts | 115° |
| 2026-04-28 04:53 | -2.01232 | 98.57144 | 40876 ft | 475 kts | 115° |
| 2026-04-28 04:54 | -2.04061 | 98.63120 | 40855 ft | 475 kts | 115° |
| 2026-04-28 04:54 | -2.06876 | 98.69069 | 40850 ft | 476 kts | 115° |
| 2026-04-28 04:55 | -2.09709 | 98.75057 | 40850 ft | 476 kts | 115° |
| 2026-04-28 04:55 | -2.12546 | 98.81053 | 40849 ft | 476 kts | 115° |
| 2026-04-28 04:56 | -2.15381 | 98.87046 | 40849 ft | 477 kts | 115° |
| 2026-04-28 04:56 | -2.18219 | 98.93046 | 40849 ft | 477 kts | 115° |
| 2026-04-28 04:57 | -2.21043 | 98.99016 | 40849 ft | 477 kts | 115° |
| 2026-04-28 04:57 | -2.23883 | 99.05024 | 40882 ft | 477 kts | 115° |
| 2026-04-28 04:58 | -2.26709 | 99.11000 | 40888 ft | 479 kts | 115° |
| 2026-04-28 04:58 | -2.29561 | 99.17033 | 40888 ft | 480 kts | 115° |
| 2026-04-28 04:59 | -2.32415 | 99.23070 | 40886 ft | 479 kts | 115° |
| 2026-04-28 04:59 | -2.35247 | 99.29061 | 40886 ft | 478 kts | 115° |
| 2026-04-28 05:00 | -2.38091 | 99.35079 | 40885 ft | 478 kts | 115° |
| 2026-04-28 05:00 | -2.40916 | 99.41058 | 40885 ft | 478 kts | 115° |
| 2026-04-28 05:01 | -2.43762 | 99.47081 | 40883 ft | 479 kts | 115° |
| 2026-04-28 05:01 | -2.46435 | 99.53197 | 40883 ft | 479 kts | 108° |
| 2026-04-28 05:02 | -2.47751 | 99.59672 | 40883 ft | 480 kts | 94° |
| 2026-04-28 05:02 | -2.48310 | 99.66327 | 40882 ft | 480 kts | 94° |
| 2026-04-28 05:03 | -2.48741 | 99.73000 | 40881 ft | 479 kts | 94° |
| 2026-04-28 05:03 | -2.49142 | 99.79623 | 40880 ft | 479 kts | 93° |
| 2026-04-28 05:04 | -2.49538 | 99.86269 | 40880 ft | 479 kts | 93° |
| 2026-04-28 05:04 | -2.49865 | 99.91796 | 40879 ft | 479 kts | 93° |
| 2026-04-28 05:05 | -2.50259 | 99.98474 | 40879 ft | 479 kts | 93° |
| 2026-04-28 05:05 | -2.50648 | 100.05100 | 40879 ft | 480 kts | 93° |
| 2026-04-28 05:06 | -2.51174 | 100.11770 | 40874 ft | 480 kts | 101° |
| 2026-04-28 05:06 | -2.52748 | 100.18232 | 40879 ft | 481 kts | 104° |
| 2026-04-28 05:07 | -2.54404 | 100.24707 | 40878 ft | 480 kts | 104° |
| 2026-04-28 05:07 | -2.56084 | 100.31167 | 40869 ft | 479 kts | 104° |
| 2026-04-28 05:08 | -2.58696 | 100.37238 | 40852 ft | 480 kts | 127° |
| 2026-04-28 05:08 | -2.62507 | 100.42711 | 40851 ft | 480 kts | 121° |
| 2026-04-28 05:09 | -2.65908 | 100.48425 | 40850 ft | 481 kts | 120° |
| 2026-04-28 05:09 | -2.69304 | 100.54198 | 40850 ft | 481 kts | 120° |
| 2026-04-28 05:10 | -2.72687 | 100.59964 | 40850 ft | 480 kts | 120° |
| 2026-04-28 05:10 | -2.76069 | 100.65731 | 40851 ft | 480 kts | 120° |
| 2026-04-28 05:11 | -2.79448 | 100.71500 | 40851 ft | 480 kts | 120° |
| 2026-04-28 05:11 | -2.82833 | 100.77282 | 40851 ft | 480 kts | 120° |
| 2026-04-28 05:12 | -2.86191 | 100.83022 | 40851 ft | 480 kts | 120° |
| 2026-04-28 05:12 | -2.89571 | 100.88800 | 40852 ft | 480 kts | 120° |
| 2026-04-28 05:13 | -2.92949 | 100.94579 | 40850 ft | 480 kts | 120° |
| 2026-04-28 05:13 | -2.96302 | 101.00314 | 40850 ft | 480 kts | 120° |
| 2026-04-28 05:14 | -2.99679 | 101.06092 | 40851 ft | 479 kts | 120° |
| 2026-04-28 05:14 | -3.03023 | 101.11816 | 40851 ft | 479 kts | 120° |
| 2026-04-28 05:15 | -3.06387 | 101.17573 | 40852 ft | 479 kts | 120° |
| 2026-04-28 05:15 | -3.09756 | 101.23340 | 40859 ft | 479 kts | 120° |
| 2026-04-28 05:16 | -3.13123 | 101.29107 | 40860 ft | 479 kts | 120° |
| 2026-04-28 05:16 | -3.16490 | 101.34873 | 40861 ft | 479 kts | 120° |
| 2026-04-28 05:17 | -3.21519 | 101.43485 | 40861 ft | 479 kts | 120° |
| 2026-04-28 05:17 | -3.24887 | 101.49256 | 40862 ft | 479 kts | 120° |
| 2026-04-28 05:18 | -3.28232 | 101.54988 | 40862 ft | 479 kts | 120° |
| 2026-04-28 05:18 | -3.31596 | 101.60753 | 40863 ft | 479 kts | 120° |
| 2026-04-28 05:19 | -3.34960 | 101.66518 | 40863 ft | 479 kts | 120° |
| 2026-04-28 05:19 | -3.38325 | 101.72287 | 40864 ft | 478 kts | 120° |
| 2026-04-28 05:20 | -3.41669 | 101.78020 | 40864 ft | 478 kts | 120° |
| 2026-04-28 05:20 | -3.45011 | 101.83746 | 40865 ft | 478 kts | 120° |
| 2026-04-28 05:21 | -3.48368 | 101.89504 | 40865 ft | 478 kts | 120° |
| 2026-04-28 05:21 | -3.51730 | 101.95263 | 40866 ft | 478 kts | 120° |
| 2026-04-28 05:22 | -3.55073 | 102.00989 | 40866 ft | 477 kts | 120° |
| 2026-04-28 05:22 | -3.58419 | 102.06719 | 40867 ft | 477 kts | 120° |
| 2026-04-28 05:23 | -3.61769 | 102.12457 | 40867 ft | 477 kts | 120° |
| 2026-04-28 05:23 | -3.65119 | 102.18194 | 40860 ft | 478 kts | 120° |
| 2026-04-28 05:24 | -3.68473 | 102.23939 | 40848 ft | 478 kts | 120° |
| 2026-04-28 05:24 | -3.71826 | 102.29682 | 40847 ft | 477 kts | 120° |
| 2026-04-28 05:25 | -3.75177 | 102.35424 | 40847 ft | 477 kts | 120° |
| 2026-04-28 05:25 | -3.78528 | 102.41167 | 40847 ft | 477 kts | 120° |
| 2026-04-28 05:26 | -3.81855 | 102.46870 | 40847 ft | 477 kts | 120° |
| 2026-04-28 05:26 | -3.85204 | 102.52612 | 40847 ft | 478 kts | 120° |
| 2026-04-28 05:27 | -3.88558 | 102.58363 | 40846 ft | 477 kts | 120° |
| 2026-04-28 05:27 | -3.91908 | 102.64108 | 40847 ft | 477 kts | 120° |
| 2026-04-28 05:28 | -3.95260 | 102.69859 | 40847 ft | 477 kts | 120° |
| 2026-04-28 05:28 | -3.98584 | 102.75562 | 40846 ft | 478 kts | 120° |
| 2026-04-28 05:29 | -4.01932 | 102.81309 | 40846 ft | 478 kts | 120° |
| 2026-04-28 05:29 | -4.05290 | 102.87073 | 40847 ft | 479 kts | 120° |
| 2026-04-28 05:30 | -4.08630 | 102.92807 | 40846 ft | 479 kts | 120° |
| 2026-04-28 05:30 | -4.11993 | 102.98582 | 40846 ft | 479 kts | 120° |
| 2026-04-28 05:31 | -4.15350 | 103.04347 | 40846 ft | 478 kts | 120° |
| 2026-04-28 05:31 | -4.18677 | 103.10064 | 40846 ft | 477 kts | 120° |
| 2026-04-28 05:32 | -4.22024 | 103.15814 | 40846 ft | 477 kts | 120° |
| 2026-04-28 05:32 | -4.25376 | 103.21576 | 40846 ft | 478 kts | 120° |
| 2026-04-28 05:33 | -4.28724 | 103.27331 | 40846 ft | 478 kts | 120° |
| 2026-04-28 05:33 | -4.32053 | 103.33055 | 40846 ft | 478 kts | 120° |
| 2026-04-28 05:34 | -4.35402 | 103.38814 | 40846 ft | 478 kts | 120° |
| 2026-04-28 05:34 | -4.38748 | 103.44570 | 40846 ft | 478 kts | 120° |
| 2026-04-28 05:35 | -4.42096 | 103.50331 | 40846 ft | 478 kts | 120° |
| 2026-04-28 05:35 | -4.45424 | 103.56058 | 40846 ft | 478 kts | 120° |
| 2026-04-28 05:36 | -4.48773 | 103.61822 | 40846 ft | 478 kts | 120° |
| 2026-04-28 05:36 | -4.52119 | 103.67584 | 40846 ft | 478 kts | 120° |
| 2026-04-28 05:37 | -4.54736 | 103.72090 | 40846 ft | 478 kts | 120° |
| 2026-04-28 05:37 | -4.58062 | 103.77818 | 40846 ft | 478 kts | 120° |
| 2026-04-28 05:38 | -4.61407 | 103.83581 | 40846 ft | 478 kts | 120° |
| 2026-04-28 05:38 | -4.64750 | 103.89343 | 40846 ft | 478 kts | 120° |
| 2026-04-28 05:39 | -4.68095 | 103.95116 | 40846 ft | 478 kts | 120° |
| 2026-04-28 05:39 | -4.71434 | 104.00878 | 40846 ft | 478 kts | 120° |
| 2026-04-28 05:40 | -4.74754 | 104.06606 | 40846 ft | 478 kts | 120° |
| 2026-04-28 05:40 | -4.78084 | 104.12352 | 40843 ft | 472 kts | 120° |
| 2026-04-28 05:41 | -4.81351 | 104.17989 | 40843 ft | 463 kts | 120° |
| 2026-04-28 05:41 | -4.84542 | 104.23496 | 40843 ft | 456 kts | 120° |
| 2026-04-28 05:42 | -4.87711 | 104.28965 | 40843 ft | 450 kts | 120° |
| 2026-04-28 05:42 | -4.90852 | 104.34386 | 40844 ft | 449 kts | 120° |
| 2026-04-28 05:43 | -4.93979 | 104.39785 | 40847 ft | 451 kts | 120° |
| 2026-04-28 05:43 | -4.97153 | 104.45266 | 40847 ft | 456 kts | 120° |
| 2026-04-28 05:44 | -5.00352 | 104.50791 | 40827 ft | 460 kts | 120° |
| 2026-04-28 05:44 | -5.01981 | 104.53603 | 40097 ft | 473 kts | 120° |
| 2026-04-28 05:44 | -5.03652 | 104.56483 | 39460 ft | 477 kts | 120° |
| 2026-04-28 05:45 | -5.05321 | 104.59359 | 38918 ft | 476 kts | 119° |
| 2026-04-28 05:45 | -5.06969 | 104.62202 | 38354 ft | 476 kts | 119° |
| 2026-04-28 05:45 | -5.08636 | 104.65083 | 37690 ft | 477 kts | 119° |
| 2026-04-28 05:45 | -5.10307 | 104.67973 | 36978 ft | 479 kts | 119° |
| 2026-04-28 05:46 | -5.11988 | 104.70879 | 36208 ft | 483 kts | 119° |
| 2026-04-28 05:46 | -5.13678 | 104.73812 | 35387 ft | 487 kts | 118° |
| 2026-04-28 05:46 | -5.15361 | 104.76736 | 35010 ft | 480 kts | 118° |
| 2026-04-28 05:46 | -5.17003 | 104.79586 | 34594 ft | 475 kts | 118° |
| 2026-04-28 05:47 | -5.18653 | 104.82446 | 34176 ft | 470 kts | 118° |
| 2026-04-28 05:47 | -5.20282 | 104.85268 | 33769 ft | 465 kts | 118° |
| 2026-04-28 05:47 | -5.21898 | 104.88068 | 33350 ft | 461 kts | 118° |
| 2026-04-28 05:47 | -5.23502 | 104.90847 | 32857 ft | 458 kts | 119° |
| 2026-04-28 05:48 | -5.25092 | 104.93601 | 32392 ft | 454 kts | 119° |
| 2026-04-28 05:48 | -5.26671 | 104.96337 | 31921 ft | 451 kts | 119° |
| 2026-04-28 05:48 | -5.28241 | 104.99055 | 31451 ft | 448 kts | 119° |
| 2026-04-28 05:48 | -5.29776 | 105.01716 | 30986 ft | 445 kts | 119° |
| 2026-04-28 05:49 | -5.31323 | 105.04395 | 30513 ft | 442 kts | 119° |
| 2026-04-28 05:49 | -5.32859 | 105.07058 | 30042 ft | 438 kts | 119° |
| 2026-04-28 05:49 | -5.34379 | 105.09692 | 29571 ft | 435 kts | 119° |
| 2026-04-28 05:49 | -5.35896 | 105.12321 | 29098 ft | 432 kts | 119° |
| 2026-04-28 05:50 | -5.37396 | 105.14921 | 28627 ft | 429 kts | 120° |
| 2026-04-28 05:50 | -5.38886 | 105.17505 | 28161 ft | 426 kts | 120° |
| 2026-04-28 05:50 | -5.40365 | 105.20069 | 27687 ft | 423 kts | 120° |
| 2026-04-28 05:50 | -5.41832 | 105.22614 | 27221 ft | 419 kts | 120° |
| 2026-04-28 05:51 | -5.43290 | 105.25142 | 26755 ft | 416 kts | 120° |
| 2026-04-28 05:51 | -5.44714 | 105.27613 | 26297 ft | 413 kts | 120° |
| 2026-04-28 05:51 | -5.46154 | 105.30111 | 25832 ft | 410 kts | 120° |
| 2026-04-28 05:51 | -5.47577 | 105.32581 | 25372 ft | 407 kts | 120° |
| 2026-04-28 05:52 | -5.48991 | 105.35035 | 24913 ft | 404 kts | 120° |
| 2026-04-28 05:52 | -5.50395 | 105.37472 | 24455 ft | 401 kts | 120° |
| 2026-04-28 05:52 | -5.51786 | 105.39886 | 23999 ft | 398 kts | 120° |
| 2026-04-28 05:52 | -5.53149 | 105.42252 | 23552 ft | 395 kts | 120° |
| 2026-04-28 05:53 | -5.54525 | 105.44640 | 23100 ft | 392 kts | 120° |
| 2026-04-28 05:53 | -5.55887 | 105.47005 | 22650 ft | 390 kts | 120° |
| 2026-04-28 05:53 | -5.57237 | 105.49348 | 22203 ft | 387 kts | 120° |
| 2026-04-28 05:53 | -5.58575 | 105.51673 | 21758 ft | 384 kts | 120° |
| 2026-04-28 05:54 | -5.59914 | 105.53998 | 21312 ft | 381 kts | 120° |
| 2026-04-28 05:54 | -5.61236 | 105.56294 | 20870 ft | 378 kts | 120° |
| 2026-04-28 05:54 | -5.62531 | 105.58544 | 20437 ft | 376 kts | 120° |
| 2026-04-28 05:54 | -5.63834 | 105.60807 | 19999 ft | 373 kts | 120° |
| 2026-04-28 05:55 | -5.64711 | 105.62331 | 19703 ft | 371 kts | 120° |
| 2026-04-28 05:55 | -5.66410 | 105.65283 | 19131 ft | 367 kts | 120° |
| 2026-04-28 05:55 | -5.67255 | 105.66752 | 18850 ft | 365 kts | 120° |
| 2026-04-28 05:55 | -5.68521 | 105.68953 | 18416 ft | 363 kts | 120° |
| 2026-04-28 05:56 | -5.69780 | 105.71141 | 17988 ft | 360 kts | 120° |
| 2026-04-28 05:56 | -5.71027 | 105.73308 | 17563 ft | 357 kts | 120° |
| 2026-04-28 05:56 | -5.72266 | 105.75462 | 17139 ft | 354 kts | 120° |
| 2026-04-28 05:56 | -5.73495 | 105.77599 | 16717 ft | 352 kts | 120° |
| 2026-04-28 05:57 | -5.74713 | 105.79718 | 16298 ft | 349 kts | 120° |
| 2026-04-28 05:57 | -5.75909 | 105.81798 | 15884 ft | 346 kts | 120° |
| 2026-04-28 05:57 | -5.77108 | 105.83883 | 15469 ft | 343 kts | 120° |
| 2026-04-28 05:57 | -5.78298 | 105.85953 | 15056 ft | 340 kts | 120° |
| 2026-04-28 05:58 | -5.79476 | 105.88002 | 14645 ft | 338 kts | 120° |
| 2026-04-28 05:58 | -5.80648 | 105.90040 | 14235 ft | 335 kts | 120° |
| 2026-04-28 05:58 | -5.81807 | 105.92057 | 13829 ft | 332 kts | 120° |
| 2026-04-28 05:58 | -5.82957 | 105.94058 | 13425 ft | 329 kts | 120° |
| 2026-04-28 05:59 | -5.84082 | 105.96017 | 13028 ft | 326 kts | 120° |
| 2026-04-28 05:59 | -5.85214 | 105.97986 | 12627 ft | 323 kts | 120° |
| 2026-04-28 05:59 | -5.86333 | 105.99934 | 12231 ft | 320 kts | 120° |
| 2026-04-28 05:59 | -5.87447 | 106.01873 | 11834 ft | 317 kts | 120° |
| 2026-04-28 06:00 | -5.88545 | 106.03786 | 11444 ft | 314 kts | 120° |
| 2026-04-28 06:00 | -5.89634 | 106.05683 | 11057 ft | 312 kts | 120° |
| 2026-04-28 06:00 | -5.90703 | 106.07545 | 10702 ft | 309 kts | 120° |
| 2026-04-28 06:00 | -5.91757 | 106.09381 | 10577 ft | 297 kts | 120° |
| 2026-04-28 06:01 | -5.92770 | 106.11146 | 10472 ft | 287 kts | 120° |
| 2026-04-28 06:01 | -5.93751 | 106.12855 | 10391 ft | 278 kts | 120° |
| 2026-04-28 06:01 | -5.94706 | 106.14520 | 10292 ft | 273 kts | 120° |
| 2026-04-28 06:01 | -5.95656 | 106.16175 | 10002 ft | 275 kts | 120° |
| 2026-04-28 06:02 | -5.96614 | 106.17846 | 9665 ft | 275 kts | 120° |
| 2026-04-28 06:02 | -5.97552 | 106.19479 | 9333 ft | 273 kts | 120° |
| 2026-04-28 06:02 | -5.98496 | 106.21124 | 9001 ft | 272 kts | 120° |
| 2026-04-28 06:02 | -5.99440 | 106.22770 | 8669 ft | 272 kts | 120° |
| 2026-04-28 06:03 | -6.00388 | 106.24421 | 8332 ft | 271 kts | 120° |
| 2026-04-28 06:03 | -6.01331 | 106.26063 | 7996 ft | 270 kts | 120° |
| 2026-04-28 06:03 | -6.02256 | 106.27676 | 7666 ft | 268 kts | 120° |
| 2026-04-28 06:03 | -6.03186 | 106.29296 | 7336 ft | 267 kts | 121° |
| 2026-04-28 06:04 | -6.04407 | 106.30670 | 7061 ft | 265 kts | 144° |
| 2026-04-28 06:04 | -6.06118 | 106.31437 | 6500 ft | 276 kts | 167° |
| 2026-04-28 06:04 | -6.08015 | 106.31842 | 6020 ft | 280 kts | 168° |
| 2026-04-28 06:04 | -6.09926 | 106.32230 | 5679 ft | 279 kts | 168° |
| 2026-04-28 06:05 | -6.11801 | 106.32592 | 5447 ft | 273 kts | 169° |
| 2026-04-28 06:05 | -6.13630 | 106.32935 | 5369 ft | 261 kts | 169° |
| 2026-04-28 06:05 | -6.15385 | 106.33258 | 5288 ft | 251 kts | 169° |
| 2026-04-28 06:05 | -6.17068 | 106.33563 | 5202 ft | 240 kts | 169° |
| 2026-04-28 06:06 | -6.18671 | 106.33852 | 5122 ft | 234 kts | 169° |
| 2026-04-28 06:06 | -6.20210 | 106.34330 | 5037 ft | 232 kts | 147° |
| 2026-04-28 06:06 | -6.21309 | 106.35483 | 4978 ft | 230 kts | 121° |
| 2026-04-28 06:06 | -6.22153 | 106.36840 | 4868 ft | 223 kts | 122° |
| 2026-04-28 06:07 | -6.22987 | 106.38173 | 4785 ft | 226 kts | 122° |
| 2026-04-28 06:07 | -6.23641 | 106.39536 | 4693 ft | 216 kts | 100° |
| 2026-04-28 06:07 | -6.23524 | 106.41009 | 4557 ft | 207 kts | 71° |
| 2026-04-28 06:07 | -6.23026 | 106.42357 | 4353 ft | 204 kts | 69° |
| 2026-04-28 06:08 | -6.22512 | 106.43675 | 4125 ft | 201 kts | 69° |
| 2026-04-28 06:08 | -6.22003 | 106.44957 | 3905 ft | 199 kts | 68° |
| 2026-04-28 06:08 | -6.21492 | 106.46238 | 3676 ft | 196 kts | 68° |
| 2026-04-28 06:08 | -6.20988 | 106.47509 | 3437 ft | 194 kts | 69° |
| 2026-04-28 06:09 | -6.20486 | 106.48767 | 3197 ft | 193 kts | 68° |
| 2026-04-28 06:09 | -6.19985 | 106.50017 | 2957 ft | 192 kts | 68° |
| 2026-04-28 06:09 | -6.19486 | 106.51264 | 2709 ft | 192 kts | 68° |
| 2026-04-28 06:09 | -6.18995 | 106.52495 | 2464 ft | 191 kts | 68° |
| 2026-04-28 06:10 | -6.18501 | 106.53731 | 2215 ft | 191 kts | 68° |
| 2026-04-28 06:10 | -6.18006 | 106.54970 | 1987 ft | 188 kts | 68° |
| 2026-04-28 06:10 | -6.17533 | 106.56156 | 1758 ft | 179 kts | 68° |
| 2026-04-28 06:10 | -6.17084 | 106.57280 | 1507 ft | 166 kts | 68° |
| 2026-04-28 06:11 | -6.16679 | 106.58299 | 1293 ft | 153 kts | 66° |
| 2026-04-28 06:11 | -6.16287 | 106.59277 | 1085 ft | 149 kts | 66° |
| 2026-04-28 06:11 | -6.15909 | 106.60222 | 885 ft | 143 kts | 66° |
| 2026-04-28 06:11 | -6.15541 | 106.61144 | 700 ft | 141 kts | 66° |
| 2026-04-28 06:12 | -6.15178 | 106.62055 | 536 ft | 140 kts | 66° |
| 2026-04-28 06:12 | -6.14823 | 106.62972 | 348 ft | 140 kts | 66° |
| 2026-04-28 06:12 | -6.14463 | 106.63863 | 174 ft | 139 kts | 66° |
| 2026-04-28 06:12 | -6.14099 | 106.64757 | 55 ft | 133 kts | 66° |
| 2026-04-28 06:13 | -6.13787 | 106.65523 | 52 ft | 104 kts | 67° |
| 2026-04-28 06:13 | -6.13595 | 106.66010 | 51 ft | 37 kts | 68° |
| 2026-04-28 06:13 | -6.13527 | 106.66172 | 51 ft | 18 kts | 60° |
| 2026-04-28 06:13 | -6.13449 | 106.66245 | 51 ft | 15 kts | 39° |
| 2026-04-28 06:14 | -6.13369 | 106.66302 | 51 ft | 11 kts | 18° |
| 2026-04-28 06:14 | -6.13307 | 106.66289 | 51 ft | 7 kts | 305° |
| 2026-04-28 06:14 | -6.13315 | 106.66229 | 51 ft | 10 kts | 244° |
| 2026-04-28 06:14 | -6.13341 | 106.66165 | 51 ft | 11 kts | 248° |
| 2026-04-28 06:15 | -6.13372 | 106.66090 | 51 ft | 13 kts | 248° |
| 2026-04-28 06:15 | -6.13407 | 106.66000 | 51 ft | 15 kts | 248° |
| 2026-04-28 06:15 | -6.13444 | 106.65908 | 51 ft | 14 kts | 248° |
| 2026-04-28 06:15 | -6.13481 | 106.65814 | 51 ft | 15 kts | 248° |
| 2026-04-28 06:16 | -6.13516 | 106.65727 | 51 ft | 13 kts | 248° |
| 2026-04-28 06:16 | -6.13495 | 106.65654 | 51 ft | 13 kts | 338° |
| 2026-04-28 06:16 | -6.13421 | 106.65623 | 51 ft | 12 kts | 332° |
| 2026-04-28 06:16 | -6.13372 | 106.65577 | 51 ft | 7 kts | 322° |
| 2026-04-28 06:17 | -6.13332 | 106.65576 | 51 ft | 5 kts | 28° |
| 2026-04-28 06:17 | -6.13304 | 106.65596 | 51 ft | 1 kts | 38° |